Aktualne dane pomiarowe

Uwaga, wersja testowa! Automatyczne pobieranie danych za pomocą narzędzi lub skryptów to umożliwiających jest zabronione.

Dane meteo z obszaru Polski uzyskane na podstawie depesz SYNOP pobieranych co godzinę z NWS. Najedź myszką na symbol przedstawiony w tabeli, aby uzyskać informacje co do jego znaczenia. Prosimy pamiętać, że to testowa wersja strony, która jeszcze nie jest ukończona. Stworzono również jest krótki FAQ dotyczący korzystania z tej podstrony Anomalie temperatury w chwili obecnej odniesione są do okresu referencyjnego 1951-2016. Okres ten będzie później zmieniony na 1981-2010. Kliknij ikonę aby pobrać plik CSV. Kliknij ikonę aby wygenerować mapę synoptyczną dla danego terminu.

Wybierz Datę:    

        

Lesko (12690)

Dane terminowe dla wybranej stacji. Kliknij datę, aby otrzymać dane z tego terminu dla wszystkich stacji.

TemperaturaZachmurzenieWiatrCiśnienieOpadyPogoda
 Data t td wb tx tn tg rh  Nt Nl Cl Cm Ch ws wd g1 g2 wx mslp ppp ch 24h 12h t ww ww w1 w2  
2019-06-19 23:00:00 18.0 17.2 17.4--- 9525.0wxwxwxwx1wx---1013.2 964.3 -0.5---wx---
2019-06-19 22:00:00 17.9 16.4 16.8--- 913.2wxwxwx1wx---1013.4 964.4 0.0---wx-w1w2--
2019-06-19 21:00:00 20.0 16.0 17.3--- 7835.0wxwxwx2wx--21013.5 964.9 0.4---wx---
2019-06-19 20:00:00 19.3 18.5 18.7--- 955.0wxwxwxwx2wx--21013.5 964.8 0.4---wx---
2019-06-19 19:00:00 19.7 18.4 18.7--- 9216.0wxwxwxwx1wx--11013.0 964.4 0.0---------
2019-06-19 18:00:00 20.8 18.7 19.3 24.8 19.4- 8830.0wxwxwxwx1wx--11013.0 964.5 0.4- 4.012wx-w1w2--
2019-06-19 17:00:00 21.0 18.4 19.1--- 8535.0wxwxwxwxwx1wx--11012.8 964.4 -1.1---------
2019-06-19 16:00:00 22.1 18.7 19.7--- 8135.0wxwxwxwx1wx--11012.6 964.4 -1.1---------
2019-06-19 15:00:00 21.3 19.0 19.6--- 8730.0wxwxwx2wx---1012.5 964.1 -2.0---wx-w1--
2019-06-19 14:00:00 21.7 18.7 19.6--- 8335.0wxwxwx2wx--21013.9 965.5 -1.1---wx-w1--
2019-06-19 13:00:00 21.9 19.1 19.9--- 8435.0wxwxwx3wx--31013.8 965.5 -0.9---wx-w1w2--
2019-06-19 12:00:00 19.5 18.2 18.5--- 9210.0wxwxwx2wx--21014.9 966.1 -0.4- 4.06wx-w1--
2019-06-19 11:00:00 20.8 18.6 19.2--- 8727.0wxwxwx2wx--21015.2 966.6 0.0---wx-w1w2--
2019-06-19 10:00:00 19.8 17.0 17.8--- 8435.0wxwxwx2wx--21015.1 966.4 -0.4---wx-w1w2--
2019-06-19 09:00:00 24.3 18.0 20.0--- 6835.0wxwxwx1wx--11014.5 966.5 -0.5---wx-w1--
2019-06-19 08:00:00 22.9 18.9 20.1--- 7830.0wxwxwx1wx---1014.8 966.6 -0.3---wx-w1--
2019-06-19 07:00:00 21.4 18.0 19.0--- 8127.0wxwxwxwx1wx--11015.3 966.8 -0.3---------
2019-06-19 06:00:00 20.2 18.5 19.0 20.7 15.0 14 9023.0wxwxwxwxwx1wx--11015.7 967.0 0.1- 0.012wx-w1- 2.1
2019-06-19 05:00:00 17.6 17.1 17.2--- 979.0wxwxwxwxwx1wx--11016.0 966.9 -0.2---wx---
2019-06-19 04:00:00 16.0 15.7 15.8--- 983.0wx-wxwx1wx--11016.5 967.1 0.0---wx-w1--
2019-06-19 03:00:00 15.3 14.8 14.9--- 970.2wx-2wx--21016.4 966.9 -0.6---wx---
2019-06-19 02:00:00 15.1 14.5 14.6--- 960.2wx-1wx--11016.7 967.1 -0.6---wx---
2019-06-19 01:00:00 16.2 15.6 15.7--- 961.9wx-wx2wx--21016.5 967.1 -0.8---wx---
2019-06-19 00:00:00 17.1 16.3 16.5--- 953.7wx-wxwx1wx--11016.7 967.5 -0.7- 0.06wx---
2019-06-18 23:00:00 17.8 16.8 17.1--- 948.0wx-wx1wx--11016.8 967.7 -0.7---wx---
2019-06-18 22:00:00 18.0 16.8 17.1--- 938.0wx-wx1wx---1017.0 967.9 -0.5---wx---
2019-06-18 21:00:00 17.8 16.3 16.7--- 917.0wx-2wx--21017.4 968.2 -0.2---wx---
2019-06-18 20:00:00 18.7 16.7 17.3--- 8811.0wx-wxwx2wx--21017.4 968.4 -0.1---------
2019-06-18 19:00:00 19.5 16.9 17.7--- 8514.0wxwxwxwx1wx--11017.3 968.4 0.1---------
2019-06-18 18:00:00 20.7 16.9 18.1 22.8 17.6- 7916.0wxwxwxwxwx2wx--21017.1 968.4 -0.4- 0.012------
2019-06-18 17:00:00 21.7 17.1 18.5--- 7516.0wxwxwxwx3wx---1017.0 968.5 -0.7---------
2019-06-18 16:00:00 22.6 17.3 19.0--- 7217.0wxwxwxwxwx3wx--31016.6 968.3 -1.4---------
2019-06-18 15:00:00 22.0 17.1 18.6--- 7418.0wxwxwx2wx---1017.3 968.8 -1.1---------
2019-06-18 14:00:00 22.2 16.7 18.5--- 7120.0wxwxwxwx3wx--31017.7 969.2 -1.0---------
2019-06-18 13:00:00 21.9 16.6 18.3--- 7218.0wxwxwx3wx--31018.2 969.7 -0.8---------
2019-06-18 12:00:00 21.4 16.8 18.2--- 7518.0wxwxwx3wx--31018.5 969.9 -0.7- 0.06------
2019-06-18 11:00:00 20.8 16.6 17.9--- 7723.0wxwxwx2wx--21018.9 970.2 -0.5---------
2019-06-18 10:00:00 20.3 15.7 17.2--- 7524.0wxwxwx3wx--31019.3 970.5 -0.3---------
2019-06-18 09:00:00 19.8 15.6 16.9--- 7724.0wxwxwx3wx--31019.5 970.6 -0.2---------
2019-06-18 08:00:00 19.1 15.2 16.4--- 7835.0wxwxwx2wx--21019.8 970.7 0.0---------
2019-06-18 07:00:00 18.7 14.6 15.9--- 7735.0wxwxwx3wx---1019.9 970.8 0.3---------
2019-06-18 06:00:00 17.6 14.7 15.6 17.6 15.4 16 8330.0wxwxwx1wx--11020.1 970.8 0.1 1.7 0.012----- 1.5
2019-06-18 05:00:00 16.5 14.1 14.8--- 8630.0wxwxwx1wx--11020.2 970.7 0.2---------
2019-06-18 04:00:00 16.0 14.7 15.1--- 9225.0wxwxwx1wx--11020.1 970.5 -0.1---------
2019-06-18 03:00:00 15.5 14.2 14.6--- 9216.0wxwxwx1wx--11020.4 970.7 -0.2---------
2019-06-18 02:00:00 15.6 13.8 14.3--- 8930.0wxwxwx0----1020.2 970.5 -0.8---------
2019-06-18 01:00:00 15.6 13.8 14.3--- 8935.0wxwxwx1wx---1020.3 970.6 -0.7---------
2019-06-18 00:00:00 15.6 13.8 14.3--- 8930.0wxwxwx1wx--11020.6 970.9 -0.4- 0.06------
1.4 ms

 

Print Friendly, PDF & Email